Time;durP1;ratioP1;P1;durP2;ratioP2;P2;SDS_P1;SDS_P2;PMS_P1;PMS_P2;Temp;Humidity;BMP_temperature;BMP_pressure;BME280_temperature;BME280_humidity;BME280_pressure;Samples;Min_cycle;Max_cycle;Signal;HPM_P1;HPM_P2
2021/06/09 03:43:21;;;;;;;38.50;30.67;;;15.90;90.60;;;;;;5197241;23;10001965;-89
2021/06/09 04:24:54;;;;;;;34.90;31.15;;;15.80;90.40;;;;;;5772657;23;21565;31
2021/06/09 04:42:59;;;;;;;30.97;27.73;;;16.10;89.20;;;;;;5434249;23;20447;-89
2021/06/09 05:09:03;;;;;;;27.33;24.50;;;18.40;76.80;;;;;;5472184;23;20465;-90
2021/06/09 05:14:42;;;;;;;31.70;28.70;;;18.80;93.20;;;;;;5442370;23;20464;-88
2021/06/09 05:17:08;;;;;;;27.20;24.77;;;;;;;;;;5587729;23;20479;-89
2021/06/09 05:25:06;;;;;;;26.90;24.50;;;19.20;71.90;;;;;;5315720;23;20923;-89
2021/06/09 05:30:08;;;;;;;27.00;24.70;;;19.60;72.70;;;;;;4975534;28;20497;-92
2021/06/09 05:32:38;;;;;;;26.53;24.13;;;19.80;68.90;;;;;;4968463;23;20553;-88
2021/06/09 05:35:06;;;;;;;27.90;25.43;;;20.50;74.30;;;;;;4942380;29;20417;-90
2021/06/09 05:37:36;;;;;;;26.53;24.10;;;19.90;70.90;;;;;;4954906;29;20423;-92
2021/06/09 05:40:09;;;;;;;27.47;24.87;;;21.90;75.30;;;;;;4953989;29;20426;-88
2021/06/09 05:42:38;;;;;;;28.50;25.87;;;20.30;67.40;;;;;;4957819;28;20415;-90
2021/06/09 05:45:15;;;;;;;28.33;25.90;;;21.90;73.60;;;;;;4954423;29;20483;-92
2021/06/09 05:47:45;;;;;;;27.77;25.00;;;20.60;66.40;;;;;;4954435;29;20474;-89
2021/06/09 05:50:12;;;;;;;26.60;24.40;;;;;;;;;;4952665;29;20938;-90
2021/06/09 05:52:39;;;;;;;28.60;26.00;;;21.20;63.40;;;;;;4942537;29;20443;-91
2021/06/09 05:55:06;;;;;;;29.47;26.83;;;23.20;68.50;;;;;;4940612;29;20419;-91
2021/06/09 05:57:32;;;;;;;29.43;26.83;;;21.30;63.90;;;;;;4939052;29;20943;-90
2021/06/09 05:59:58;;;;;;;29.10;26.60;;;21.10;62.50;;;;;;4946606;29;20453;-92
2021/06/09 06:02:28;;;;;;;28.70;25.97;;;21.80;63.00;;;;;;4959035;29;20207;-89
2021/06/09 06:04:55;;;;;;;27.23;25.00;;;21.50;60.80;;;;;;4956397;29;20432;-92
2021/06/09 06:07:21;;;;;;;26.53;24.17;;;25.00;66.80;;;;;;4948643;29;20503;-93
2021/06/09 06:09:47;;;;;;;27.53;24.93;;;;;;;;;;4948990;29;20415;-88
2021/06/09 06:12:18;;;;;;;27.97;25.60;;;22.90;59.10;;;;;;4949884;29;20230;-93
2021/06/09 06:14:48;;;;;;;26.97;24.57;;;27.00;63.90;;;;;;4953229;29;20396;-91
2021/06/09 06:17:16;;;;;;;29.20;26.60;;;23.70;58.70;;;;;;4955447;29;20738;-93
2021/06/09 06:19:42;;;;;;;29.87;27.17;;;23.60;58.00;;;;;;4952688;29;20451;-95
2021/06/09 06:22:10;;;;;;;29.00;26.60;;;23.10;59.10;;;;;;4952160;29;20415;-92
2021/06/09 06:24:39;;;;;;;33.73;30.47;;;24.30;57.70;;;;;;4947735;29;20167;-90
2021/06/09 06:27:30;;;;;;;29.53;26.83;;;26.60;57.90;;;;;;4947233;29;20530;-92
2021/06/09 06:29:57;;;;;;;30.67;28.00;;;24.70;56.00;;;;;;4947613;29;20431;-92
2021/06/09 06:32:25;;;;;;;31.10;28.60;;;24.80;55.50;;;;;;4952576;29;20471;-89
2021/06/09 06:34:52;;;;;;;31.20;28.60;;;25.20;55.00;;;;;;4946464;29;20484;-92
2021/06/09 06:37:21;;;;;;;29.30;26.90;;;27.60;56.30;;;;;;4952069;29;20470;-93
2021/06/09 06:39:50;;;;;;;29.10;26.43;;;25.40;57.60;;;;;;5011053;23;21228;-90
2021/06/09 06:42:22;;;;;;;29.30;26.47;;;26.50;54.50;;;;;;4958134;29;20438;-92
2021/06/09 06:44:55;;;;;;;29.33;26.80;;;28.90;55.60;;;;;;4975833;28;20438;-91
2021/06/09 06:47:24;;;;;;;28.67;26.27;;;26.50;53.80;;;;;;5088385;23;20546;-92
2021/06/09 06:52:32;;;;;;;30.03;27.27;;;26.90;50.80;;;;;;5031016;23;20508;-88
2021/06/09 06:55:03;;;;;;;32.47;29.63;;;29.60;53.10;;;;;;4977157;28;20517;-88
2021/06/09 06:57:30;;;;;;;32.20;29.23;;;29.60;51.30;;;;;;4976786;28;20410;-92
2021/06/09 07:00:23;;;;;;;29.87;27.37;;;27.70;51.60;;;;;;4959644;28;20434;-90
2021/06/09 07:02:55;;;;;;;30.90;28.17;;;27.00;51.80;;;;;;5018664;23;20476;-90
2021/06/09 07:05:23;;;;;;;31.03;28.33;;;27.40;50.20;;;;;;5156606;23;20526;-89
2021/06/09 07:07:49;;;;;;;30.63;27.70;;;28.80;50.80;;;;;;4955873;29;20473;-90
2021/06/09 07:10:21;;;;;;;30.77;28.07;;;29.80;50.00;;;;;;5192028;23;20501;-91
2021/06/09 07:15:23;;;;;;;28.80;26.60;;;28.90;46.20;;;;;;5162639;23;20509;-91
2021/06/09 07:20:29;;;;;;;29.53;27.00;;;29.90;47.70;;;;;;4997151;23;20510;-90
2021/06/09 07:25:51;;;;;;;30.50;27.60;;;29.80;43.30;;;;;;4899046;23;20467;-91
2021/06/09 07:28:20;;;;;;;27.87;25.67;;;30.10;46.00;;;;;;4933022;29;20460;-92
2021/06/09 07:30:50;;;;;;;29.03;26.70;;;31.30;44.60;;;;;;4916352;29;20424;-89
2021/06/09 07:33:19;;;;;;;29.33;26.97;;;30.90;44.20;;;;;;4939085;29;20436;-92
2021/06/09 07:38:34;;;;;;;28.57;26.40;;;30.90;42.00;;;;;;5030121;23;20482;-89
2021/06/09 07:41:17;;;;;;;28.53;26.30;;;30.30;42.20;;;;;;5159690;23;20441;-91
2021/06/09 07:43:52;;;;;;;29.90;27.40;;;31.00;43.20;;;;;;4974681;28;20516;-93
2021/06/09 07:46:26;;;;;;;27.47;25.07;;;31.10;42.60;;;;;;4973373;28;20537;-91
2021/06/09 07:51:31;;;;;;;28.60;26.27;;;31.40;42.10;;;;;;2559298;23;20511;-90
2021/06/09 07:54:01;;;;;;;30.43;27.93;;;31.40;44.50;;;;;;5360299;23;20821;-90
2021/06/09 07:56:32;;;;;;;30.73;28.13;;;31.60;45.00;;;;;;5224681;23;20494;-90
2021/06/09 07:59:00;;;;;;;29.90;27.33;;;31.80;41.40;;;;;;4954911;29;20425;-90
2021/06/09 08:04:04;;;;;;;29.00;26.53;;;32.30;40.30;;;;;;5082537;23;20528;-93
2021/06/09 08:09:07;;;;;;;30.00;27.80;;;32.70;39.80;;;;;;4990524;23;20482;-91
2021/06/09 08:11:36;;;;;;;31.20;28.77;;;32.90;41.00;;;;;;5183742;23;20506;-92
2021/06/09 08:14:07;;;;;;;28.63;26.57;;;35.00;40.90;;;;;;4975379;28;20438;-92
2021/06/09 08:16:56;;;;;;;29.67;27.13;;;30.80;38.30;;;;;;4959581;28;20418;-93
2021/06/09 08:27:08;;;;;;;28.13;26.13;;;32.80;39.10;;;;;;4702821;23;20493;-93
2021/06/09 08:29:44;;;;;;;26.43;24.53;;;34.40;39.70;;;;;;4959636;28;20758;-91
2021/06/09 08:34:52;;;;;;;25.20;23.30;;;33.60;37.30;;;;;;4733955;26;20470;-88
2021/06/09 08:37:33;;;;;;;;;;;;;;;;;;;;;
2021/06/09 08:45:15;;;;;;;25.40;23.50;;;34.70;36.10;;;;;;5003852;23;20813;-93
2021/06/09 08:47:53;;;;;;;27.03;25.10;;;34.80;37.40;;;;;;5012487;23;20503;-90
2021/06/09 08:50:29;;;;;;;29.67;27.20;;;34.50;36.50;;;;;;4998459;23;20581;-93
2021/06/09 08:56:12;;;;;;;28.10;26.00;;;35.40;36.30;;;;;;5058874;23;20514;-91
2021/06/09 08:58:41;;;;;;;26.27;24.27;;;35.30;35.80;;;;;;5108738;23;20498;-91
2021/06/09 09:01:13;;;;;;;26.40;24.50;;;36.00;35.80;;;;;;4975545;28;20410;-92
2021/06/09 09:03:43;;;;;;;27.00;24.93;;;36.20;35.60;;;;;;4972754;28;20426;-89
2021/06/09 09:06:09;;;;;;;26.33;24.37;;;35.10;35.30;;;;;;4973349;28;20458;-91
2021/06/09 09:08:38;;;;;;;28.03;25.63;;;34.30;35.40;;;;;;4975566;28;20410;-92
2021/06/09 09:11:05;;;;;;;26.13;24.13;;;35.30;37.80;;;;;;4971365;28;20441;-90
2021/06/09 09:13:35;;;;;;;23.87;22.23;;;35.20;38.10;;;;;;4974915;28;20415;-90
2021/06/09 09:16:05;;;;;;;25.17;22.97;;;32.70;35.80;;;;;;4971844;28;20514;-89
2021/06/09 09:18:45;;;;;;;27.70;25.43;;;33.10;36.30;;;;;;4973670;28;20410;-91
2021/06/09 09:21:49;;;;;;;25.63;23.70;;;32.50;36.30;;;;;;4973493;28;20545;-90
2021/06/09 09:24:55;;;;;;;25.17;23.17;;;33.10;36.90;;;;;;4971209;28;20486;-94
2021/06/09 09:27:31;;;;;;;25.70;23.70;;;33.80;35.80;;;;;;4950907;28;20564;-92
2021/06/09 09:30:18;;;;;;;24.60;22.90;;;35.70;36.40;;;;;;4957278;28;20453;-92
2021/06/09 09:35:24;;;;;;;27.37;25.17;;;35.30;33.80;;;;;;3853309;23;20469;-91
2021/06/09 09:38:08;;;;;;;28.40;26.20;;;35.90;35.80;;;;;;5020022;23;20486;-89
2021/06/09 09:40:37;;;;;;;27.23;25.20;;;34.20;34.90;;;;;;4953442;29;20474;-92
2021/06/09 09:43:05;;;;;;;27.83;25.73;;;34.60;36.00;;;;;;4954330;29;20487;-92
2021/06/09 09:45:42;;;;;;;28.87;26.47;;;34.10;37.30;;;;;;4986393;23;20469;-92
2021/06/09 09:56:22;;;;;;;28.93;26.90;;;34.60;34.40;;;;;;4676058;23;20486;-92
2021/06/09 09:59:25;;;;;;;29.90;27.60;;;35.30;35.20;;;;;;4994118;23;20485;-92
2021/06/09 10:04:34;;;;;;;30.37;28.07;;;35.40;33.70;;;;;;4950861;26;20512;-89
2021/06/09 10:07:00;;;;;;;31.57;28.70;;;34.90;33.80;;;;;;4957850;29;21000;-90
2021/06/09 10:09:47;;;;;;;34.97;31.70;;;33.20;35.30;;;;;;4973889;28;20530;-92
2021/06/09 10:12:15;;;;;;;34.87;32.27;;;30.00;36.20;;;;;;4978409;23;20475;-92
2021/06/09 10:14:52;;;;;;;35.20;32.00;;;33.60;40.20;;;;;;4937993;29;20432;-91
2021/06/09 10:17:26;;;;;;;35.17;31.97;;;31.60;38.60;;;;;;5344160;23;21960;-90
2021/06/09 10:22:45;;;;;;;31.33;28.70;;;31.80;40.30;;;;;;5365231;23;20468;-89
2021/06/09 10:25:13;;;;;;;32.40;29.87;;;32.10;38.80;;;;;;4956256;29;20438;-92
2021/06/09 10:27:51;;;;;;;35.13;32.40;;;32.90;37.20;;;;;;4935073;29;20475;-91
2021/06/09 10:30:22;;;;;;;36.67;33.13;;;32.40;36.40;;;;;;4954376;29;20399;-90
2021/06/09 10:32:53;;;;;;;34.63;31.60;;;32.30;38.10;;;;;;4941506;29;20444;-88
2021/06/09 10:35:22;;;;;;;35.47;32.37;;;31.50;37.90;;;;;;5051252;23;20528;-90
2021/06/09 10:37:57;;;;;;;36.23;33.30;;;31.40;38.00;;;;;;4960543;28;20490;-91
2021/06/09 10:40:26;;;;;;;33.13;30.10;;;33.70;38.20;;;;;;4987396;28;20768;-90
2021/06/09 10:42:58;;;;;;;32.10;29.50;;;32.80;36.80;;;;;;4987281;28;20489;-87
2021/06/09 10:45:25;;;;;;;33.90;31.23;;;33.40;35.40;;;;;;4987562;28;20437;-91
2021/06/09 10:47:55;;;;;;;33.17;30.47;;;34.10;34.40;;;;;;4983590;28;20465;-88
2021/06/09 10:50:21;;;;;;;31.10;28.70;;;35.10;33.50;;;;;;4975046;28;20417;-91
2021/06/09 10:52:47;;;;;;;28.70;26.60;;;35.10;33.40;;;;;;4966946;28;20509;-87
2021/06/09 10:55:13;;;;;;;29.47;27.20;;;35.50;34.80;;;;;;4274756;28;10000737;-86
2021/06/09 10:57:39;;;;;;;35.40;32.80;;;36.20;31.90;;;;;;4939836;29;20179;-88
2021/06/09 11:00:07;;;;;;;31.83;29.53;;;36.70;31.40;;;;;;4957684;29;20418;-89
2021/06/09 11:02:33;;;;;;;28.20;26.03;;;36.20;30.80;;;;;;4940828;29;20198;-88
2021/06/09 11:05:05;;;;;;;30.17;27.97;;;37.00;31.20;;;;;;4940772;29;20422;-89
2021/06/09 11:07:37;;;;;;;28.23;26.33;;;37.50;30.90;;;;;;4956623;28;20549;-88
2021/06/09 11:10:07;;;;;;;24.40;22.07;;;37.70;30.30;;;;;;4957416;28;20544;-88
2021/06/09 11:12:42;;;;;;;19.20;18.10;;;37.60;30.00;;;;;;4939738;29;20414;-89
2021/06/09 11:15:11;;;;;;;21.13;19.73;;;37.00;30.00;;;;;;4957708;28;20517;-89
2021/06/09 11:17:48;;;;;;;22.37;20.70;;;35.90;30.80;;;;;;4940365;29;20785;-88
2021/06/09 11:20:18;;;;;;;24.20;22.50;;;34.80;31.60;;;;;;4941327;28;20462;-89
2021/06/09 11:22:46;;;;;;;22.67;21.13;;;33.60;33.00;;;;;;4941769;29;20449;-87
2021/06/09 11:25:19;;;;;;;24.43;22.73;;;32.70;33.80;;;;;;4960278;29;20418;-88
2021/06/09 11:27:56;;;;;;;24.00;22.27;;;32.90;34.90;;;;;;4959532;29;20564;-88
2021/06/09 11:30:26;;;;;;;23.53;21.83;;;33.50;33.90;;;;;;4941783;29;20418;-88
2021/06/09 11:33:03;;;;;;;22.03;20.43;;;34.70;33.00;;;;;;4958165;28;20429;-89
2021/06/09 11:35:51;;;;;;;23.90;22.20;;;35.30;31.90;;;;;;4958206;28;20457;-88
2021/06/09 11:38:16;;;;;;;22.37;20.77;;;35.50;32.40;;;;;;4945585;29;20426;-89
2021/06/09 11:41:08;;;;;;;21.23;19.83;;;36.30;30.90;;;;;;4958640;28;20410;-88
2021/06/09 11:43:51;;;;;;;22.03;20.23;;;36.30;30.80;;;;;;4956701;28;20183;-88
2021/06/09 11:46:17;;;;;;;18.20;16.70;;;35.90;30.80;;;;;;4941141;29;20461;-87
2021/06/09 11:48:51;;;;;;;18.97;17.60;;;35.50;31.20;;;;;;4957739;28;20986;-87
2021/06/09 11:51:25;;;;;;;18.00;16.90;;;34.60;32.10;;;;;;4957686;29;20166;-90
2021/06/09 11:53:54;;;;;;;20.03;18.70;;;34.20;32.10;;;;;;4958995;28;20422;-89
2021/06/09 11:56:30;;;;;;;22.10;20.53;;;33.50;32.50;;;;;;4957339;28;20780;-87
2021/06/09 11:58:59;;;;;;;23.47;21.40;;;32.50;33.10;;;;;;4959160;28;20418;-88
2021/06/09 12:01:35;;;;;;;20.40;19.00;;;32.50;33.30;;;;;;4961507;28;20418;-89
2021/06/09 12:04:44;;;;;;;23.00;21.40;;;32.50;33.30;;;;;;4954210;28;20430;-90
2021/06/09 12:07:18;;;;;;;24.57;22.33;;;32.40;35.30;;;;;;4948985;29;20867;-87
2021/06/09 12:09:45;;;;;;;22.97;21.37;;;33.00;35.50;;;;;;4939973;29;20516;-88
2021/06/09 12:12:12;;;;;;;23.80;22.10;;;32.10;35.20;;;;;;4943033;28;20410;-90
2021/06/09 12:14:40;;;;;;;25.80;24.00;;;32.50;36.00;;;;;;4949107;29;20941;-92
2021/06/09 12:17:20;;;;;;;25.87;23.80;;;33.50;35.00;;;;;;4962076;28;20433;-89
2021/06/09 12:19:59;;;;;;;25.57;23.77;;;34.20;33.00;;;;;;4962567;28;20482;-89
2021/06/09 12:22:30;;;;;;;25.00;23.47;;;35.30;32.30;;;;;;4954817;28;20432;-89
2021/06/09 12:25:05;;;;;;;22.90;21.30;;;36.30;31.70;;;;;;4971258;28;20410;-90
2021/06/09 12:27:32;;;;;;;22.33;20.73;;;36.30;32.00;;;;;;4966198;28;20548;-91
2021/06/09 12:30:26;;;;;;;22.77;21.27;;;36.40;30.40;;;;;;4628519;28;9999838;-89
2021/06/09 12:32:52;;;;;;;25.90;24.00;;;36.50;31.10;;;;;;4972828;28;20201;-91
2021/06/09 12:35:24;;;;;;;29.13;26.77;;;36.60;31.10;;;;;;4983030;28;20460;-88
2021/06/09 12:37:59;;;;;;;27.50;25.53;;;37.10;30.70;;;;;;4982227;28;20184;-90
2021/06/09 12:40:27;;;;;;;23.93;22.50;;;37.60;30.10;;;;;;4982635;28;20414;-90
2021/06/09 12:43:11;;;;;;;25.97;23.87;;;38.40;29.40;;;;;;4983181;28;20468;-91
2021/06/09 12:45:47;;;;;;;22.73;21.43;;;38.30;29.20;;;;;;4984641;28;20401;-89
2021/06/09 12:48:50;;;;;;;32.93;30.03;;;38.30;30.00;;;;;;4991665;28;20505;-91
2021/06/09 12:51:17;;;;;;;27.03;24.87;;;37.10;29.20;;;;;;4977311;28;20431;-89
2021/06/09 12:53:43;;;;;;;25.33;23.73;;;37.50;30.00;;;;;;4991067;28;20564;-90
2021/06/09 12:56:12;;;;;;;23.87;21.83;;;37.70;31.40;;;;;;4973094;28;20433;-92
2021/06/09 12:59:01;;;;;;;24.93;23.30;;;36.40;32.40;;;;;;4993597;28;20530;-90
2021/06/09 13:01:32;;;;;;;24.20;22.43;;;36.10;30.50;;;;;;4989905;28;20501;-90
2021/06/09 13:03:59;;;;;;;21.57;20.37;;;34.90;31.80;;;;;;4992805;28;20429;-91
2021/06/09 13:06:38;;;;;;;23.23;21.83;;;35.20;33.00;;;;;;4976948;28;20484;-93
2021/06/09 13:09:08;;;;;;;17.87;16.87;;;35.70;30.70;;;;;;5114456;23;20502;-90
2021/06/09 13:11:36;;;;;;;32.60;29.70;;;36.60;31.40;;;;;;5183491;23;20463;-89
2021/06/09 13:16:46;;;;;;;18.33;17.00;;;36.30;29.40;;;;;;5257413;23;20541;-92
2021/06/09 13:19:15;;;;;;;18.67;17.40;;;33.70;30.80;;;;;;5195019;23;20466;-90
2021/06/09 13:27:01;;;;;;;21.77;19.97;;;35.40;30.10;;;;;;4966711;23;20487;-90
2021/06/09 13:29:41;;;;;;;18.93;17.63;;;37.60;31.40;;;;;;4955249;29;20403;-88
2021/06/09 13:32:45;;;;;;;22.80;21.10;;;35.00;31.90;;;;;;4940510;29;20458;-89
2021/06/09 13:37:51;;;;;;;20.73;19.23;;;34.80;30.50;;;;;;5183783;23;20489;-92
2021/06/09 13:40:28;;;;;;;19.87;18.30;;;32.80;30.20;;;;;;4975763;28;20426;-88
2021/06/09 13:43:16;;;;;;;23.90;21.93;;;35.40;30.90;;;;;;4960450;29;20659;-91
2021/06/09 13:48:21;;;;;;;18.57;17.10;;;35.30;29.90;;;;;;5106400;23;20490;-90
2021/06/09 13:51:15;;;;;;;19.80;18.37;;;36.60;31.60;;;;;;4956492;29;20418;-90
2021/06/09 13:56:43;;;;;;;17.17;15.97;;;35.30;29.90;;;;;;4737138;23;20489;-87
2021/06/09 13:59:38;;;;;;;17.17;16.17;;;35.00;29.70;;;;;;4988503;23;20495;-91
2021/06/09 14:02:54;;;;;;;17.50;16.43;;;36.00;31.60;;;;;;5049336;23;20520;-91
2021/06/09 14:05:36;;;;;;;18.77;17.57;;;36.10;30.90;;;;;;5022653;23;20485;-91
2021/06/09 14:08:09;;;;;;;18.37;17.27;;;33.30;29.70;;;;;;5192466;23;20769;-89
2021/06/09 14:10:39;;;;;;;17.73;16.23;;;32.90;28.90;;;;;;4938440;29;20474;-85
2021/06/09 14:13:28;;;;;;;18.23;16.93;;;34.30;30.70;;;;;;4921974;29;20448;-90
2021/06/09 14:15:57;;;;;;;17.13;16.03;;;33.70;30.80;;;;;;4926568;29;20517;-89
2021/06/09 14:18:35;;;;;;;16.13;15.17;;;33.90;32.40;;;;;;4934179;29;20482;-92
2021/06/09 14:21:01;;;;;;;14.83;13.83;;;33.60;31.10;;;;;;4927588;29;20420;-91
2021/06/09 14:23:39;;;;;;;15.57;14.03;;;34.00;32.30;;;;;;4901973;29;20439;-89
2021/06/09 14:26:08;;;;;;;14.03;13.23;;;33.80;31.60;;;;;;4933717;29;20474;-90
2021/06/09 14:28:42;;;;;;;12.23;11.43;;;34.10;30.40;;;;;;4932415;29;20420;-92
2021/06/09 14:31:22;;;;;;;12.90;12.30;;;34.50;30.00;;;;;;4929818;29;20425;-88
2021/06/09 14:34:09;;;;;;;11.97;11.37;;;35.20;30.00;;;;;;4933776;29;20436;-89
2021/06/09 14:36:46;;;;;;;12.97;12.20;;;34.80;30.50;;;;;;4935515;29;20420;-91
2021/06/09 14:39:27;;;;;;;11.73;11.07;;;34.10;32.20;;;;;;4931994;29;20431;-92
2021/06/09 14:41:57;;;;;;;11.37;10.77;;;34.60;31.70;;;;;;4933879;29;20468;-87
2021/06/09 14:47:18;;;;;;;12.57;11.87;;;33.60;30.80;;;;;;5050262;23;20469;-91
2021/06/09 14:49:55;;;;;;;12.10;11.30;;;33.10;31.40;;;;;;4954995;29;20410;-91
2021/06/09 14:52:32;;;;;;;10.50;10.10;;;32.70;31.40;;;;;;4973984;28;20441;-90
2021/06/09 14:55:17;;;;;;;11.33;10.53;;;31.30;31.10;;;;;;4958548;29;20505;-90
2021/06/09 14:57:46;;;;;;;11.27;10.57;;;31.80;32.20;;;;;;4976819;28;20450;-89
2021/06/09 15:00:21;;;;;;;11.20;10.40;;;32.10;33.00;;;;;;4976394;28;20430;-87
2021/06/09 15:02:47;;;;;;;12.37;11.47;;;31.80;33.40;;;;;;4940065;29;20421;-87
2021/06/09 15:05:16;;;;;;;10.90;10.20;;;30.80;33.70;;;;;;4971694;29;20426;-87
2021/06/09 15:07:42;;;;;;;10.10;9.60;;;32.80;34.10;;;;;;4604072;29;9999579;-87
2021/06/09 15:10:08;;;;;;;10.20;9.70;;;31.30;33.30;;;;;;4940013;29;20606;-85
2021/06/09 15:12:34;;;;;;;10.40;9.90;;;30.90;33.10;;;;;;4956577;29;20434;-85
2021/06/09 15:15:02;;;;;;;11.10;10.50;;;30.80;33.80;;;;;;4957139;29;20418;-86
2021/06/09 15:17:29;;;;;;;9.83;9.43;;;30.80;33.40;;;;;;4955043;29;20453;-85
2021/06/09 15:19:54;;;;;;;9.80;9.30;;;30.80;32.50;;;;;;4954433;29;20440;-85
2021/06/09 15:22:21;;;;;;;9.70;9.30;;;30.60;32.10;;;;;;4938586;29;20438;-85
2021/06/09 15:24:47;;;;;;;9.40;8.87;;;30.70;32.30;;;;;;4955013;29;20171;-87
2021/06/09 15:27:14;;;;;;;8.13;7.73;;;30.60;32.00;;;;;;4955849;29;20501;-88
2021/06/09 15:29:40;;;;;;;14.00;9.00;;;31.50;33.20;;;;;;4955985;29;20453;-88
2021/06/09 15:32:07;;;;;;;8.90;8.40;;;30.30;32.70;;;;;;4954114;29;20960;-87
2021/06/09 15:34:34;;;;;;;8.87;8.37;;;30.00;32.60;;;;;;4939782;29;20418;-88
2021/06/09 15:37:00;;;;;;;9.90;9.23;;;30.00;32.60;;;;;;4954707;29;20406;-86
2021/06/09 15:39:25;;;;;;;8.67;8.17;;;30.40;33.10;;;;;;4954494;29;20413;-88
2021/06/09 15:41:53;;;;;;;10.70;9.70;;;29.70;32.90;;;;;;4937599;29;20206;-87
2021/06/09 15:44:22;;;;;;;9.00;8.50;;;29.80;33.30;;;;;;4956429;29;20233;-91
2021/06/09 15:46:54;;;;;;;10.03;9.33;;;29.90;34.40;;;;;;4951189;29;20473;-94
2021/06/09 15:49:31;;;;;;;9.33;8.50;;;31.50;34.80;;;;;;4936391;29;20430;-91
2021/06/09 15:51:59;;;;;;;8.87;8.37;;;29.80;34.20;;;;;;5043083;23;20530;-87
2021/06/09 15:54:26;;;;;;;8.43;7.93;;;30.10;34.30;;;;;;4936274;29;20423;-88
2021/06/09 15:56:54;;;;;;;9.73;9.20;;;29.60;33.90;;;;;;4937434;29;20499;-87
2021/06/09 15:59:20;;;;;;;9.03;8.43;;;29.40;33.70;;;;;;4594010;29;10000585;-87
2021/06/09 16:01:46;;;;;;;8.93;8.40;;;29.50;35.50;;;;;;4934998;29;20243;-89
2021/06/09 16:04:12;;;;;;;8.80;8.30;;;30.40;34.50;;;;;;4934421;29;20187;-90
2021/06/09 16:06:39;;;;;;;10.20;9.60;;;31.00;35.70;;;;;;4936012;29;20550;-86
2021/06/09 16:09:05;;;;;;;10.13;9.33;;;29.50;34.90;;;;;;4933467;29;20186;-89
2021/06/09 16:11:32;;;;;;;9.73;9.13;;;29.50;34.60;;;;;;4933600;29;20423;-90
2021/06/09 16:13:57;;;;;;;10.30;9.70;;;29.50;35.10;;;;;;4934993;29;20415;-89
2021/06/09 16:16:23;;;;;;;11.37;10.53;;;29.70;35.00;;;;;;4938892;29;20427;-88
2021/06/09 16:18:49;;;;;;;10.63;9.83;;;30.20;35.70;;;;;;4918757;29;20270;-86
2021/06/09 16:21:15;;;;;;;10.70;10.07;;;29.30;35.80;;;;;;4934961;29;20519;-91
2021/06/09 16:23:40;;;;;;;12.30;11.20;;;30.30;35.50;;;;;;4936426;29;20423;-89
2021/06/09 16:26:07;;;;;;;10.77;9.70;;;28.50;35.30;;;;;;4934517;29;20639;-89
2021/06/09 16:28:34;;;;;;;16.13;14.70;;;29.80;36.00;;;;;;4931434;29;20250;-89
2021/06/09 16:30:59;;;;;;;11.13;10.40;;;28.90;34.40;;;;;;4934925;29;20419;-91
2021/06/09 16:33:26;;;;;;;11.13;10.27;;;28.90;35.30;;;;;;4929885;29;20943;-91
2021/06/09 16:35:51;;;;;;;11.03;10.37;;;29.00;34.40;;;;;;4919686;29;20639;-90
2021/06/09 16:38:17;;;;;;;11.17;9.80;;;27.90;34.70;;;;;;4918294;29;20420;-89
2021/06/09 16:40:43;;;;;;;11.47;10.87;;;29.20;36.20;;;;;;4917543;29;20573;-89
2021/06/09 16:43:09;;;;;;;12.07;11.27;;;29.00;36.90;;;;;;4917960;29;20487;-90
2021/06/09 16:45:36;;;;;;;11.27;10.47;;;28.80;35.70;;;;;;4920252;29;20416;-89
2021/06/09 16:48:02;;;;;;;12.10;11.20;;;28.70;35.80;;;;;;4922545;29;20574;-90
2021/06/09 16:50:27;;;;;;;15.37;13.93;;;28.80;36.40;;;;;;4945647;29;20458;-89
2021/06/09 16:52:53;;;;;;;12.13;11.23;;;28.60;37.90;;;;;;4954846;29;20427;-92
2021/06/09 16:55:33;;;;;;;12.60;11.80;;;28.50;36.80;;;;;;4943398;29;20591;-88
2021/06/09 17:00:46;;;;;;;13.67;12.63;;;28.30;36.90;;;;;;4938230;29;20466;-90
2021/06/09 17:03:42;;;;;;;13.50;12.60;;;28.10;36.30;;;;;;4941345;29;20431;-91
2021/06/09 17:06:07;;;;;;;15.17;14.07;;;27.60;37.40;;;;;;4951535;29;20438;-90
2021/06/09 17:08:36;;;;;;;14.00;13.10;;;28.30;39.40;;;;;;4594766;29;9999802;-88
2021/06/09 17:11:09;;;;;;;13.10;12.03;;;27.90;39.80;;;;;;5022036;23;20234;-90
2021/06/09 17:13:42;;;;;;;14.83;13.67;;;28.20;37.80;;;;;;4979823;28;20580;-88
2021/06/09 17:16:32;;;;;;;13.80;13.00;;;28.30;38.30;;;;;;4995884;28;20424;-88
2021/06/09 17:18:59;;;;;;;15.23;12.90;;;29.80;39.90;;;;;;4980363;28;20441;-93
2021/06/09 17:21:27;;;;;;;12.97;12.07;;;28.50;40.20;;;;;;4978603;28;20497;-88
2021/06/09 17:26:31;;;;;;;15.03;13.93;;;27.60;42.70;;;;;;5425692;23;20470;-89
2021/06/09 17:35:07;;;;;;;14.20;13.20;;;27.60;40.10;;;;;;3368654;23;20557;-92
2021/06/09 17:37:49;;;;;;;13.97;13.07;;;29.90;41.10;;;;;;5328068;23;20494;-92
2021/06/09 17:42:53;;;;;;;15.30;14.17;;;27.50;41.90;;;;;;5985900;23;20692;-90
2021/06/09 17:45:38;;;;;;;14.40;13.30;;;28.10;44.00;;;;;;4962754;29;20441;-87
2021/06/09 17:50:40;;;;;;;15.33;14.20;;;27.40;41.60;;;;;;5030420;23;20481;-88
2021/06/09 17:53:06;;;;;;;15.73;14.27;;;27.60;42.10;;;;;;4942724;29;20468;-89
2021/06/09 17:55:32;;;;;;;15.67;14.47;;;27.90;44.00;;;;;;4960087;29;20421;-91
2021/06/09 17:57:58;;;;;;;15.30;14.10;;;27.30;41.10;;;;;;4929166;29;20445;-90
2021/06/09 18:00:34;;;;;;;14.50;13.50;;;27.60;43.20;;;;;;4960941;29;20406;-90
2021/06/09 18:03:11;;;;;;;15.07;13.90;;;29.90;43.10;;;;;;4959144;29;20579;-91
2021/06/09 18:05:44;;;;;;;13.30;12.20;;;24.70;41.50;;;;;;4940308;29;20533;-89
2021/06/09 18:08:10;;;;;;;13.43;12.47;;;27.50;42.30;;;;;;4958916;29;20457;-88
2021/06/09 18:10:41;;;;;;;13.13;12.30;;;28.20;41.90;;;;;;4942826;29;20430;-89
2021/06/09 18:13:07;;;;;;;15.60;14.33;;;28.70;44.00;;;;;;4942510;29;20430;-90
2021/06/09 18:15:33;;;;;;;13.93;12.70;;;29.60;44.90;;;;;;4942006;29;20418;-90
2021/06/09 18:17:59;;;;;;;15.13;13.97;;;29.30;45.20;;;;;;4940811;28;20481;-90
2021/06/09 18:20:25;;;;;;;16.07;14.70;;;27.00;43.80;;;;;;4957248;29;20410;-90
2021/06/09 18:22:51;;;;;;;14.00;12.93;;;27.00;44.10;;;;;;4957949;29;20227;-89
2021/06/09 18:25:17;;;;;;;15.30;13.90;;;28.00;46.00;;;;;;4958342;29;20418;-89
2021/06/09 18:27:43;;;;;;;16.33;14.60;;;27.40;46.10;;;;;;4956831;29;20218;-89
2021/06/09 18:30:10;;;;;;;14.40;13.20;;;26.70;46.50;;;;;;4941136;29;20415;-90
2021/06/09 18:32:38;;;;;;;17.43;15.93;;;26.60;45.00;;;;;;4958251;29;20422;-89
2021/06/09 18:35:05;;;;;;;15.37;14.07;;;26.60;46.40;;;;;;4958094;29;20442;-90
2021/06/09 18:37:31;;;;;;;17.40;15.77;;;26.40;48.00;;;;;;4941749;29;20434;-89
2021/06/09 18:39:57;;;;;;;19.00;17.30;;;26.30;49.60;;;;;;4942115;29;20763;-90
2021/06/09 18:42:24;;;;;;;17.40;16.00;;;26.30;49.20;;;;;;4943994;29;20643;-93
2021/06/09 18:44:51;;;;;;;17.63;16.03;;;26.70;51.30;;;;;;4966831;29;20433;-89
2021/06/09 18:47:17;;;;;;;16.33;15.03;;;26.10;50.60;;;;;;4974831;28;20525;-89
2021/06/09 18:49:43;;;;;;;14.03;13.03;;;25.70;50.20;;;;;;4961678;29;20515;-91
2021/06/09 18:52:11;;;;;;;16.03;14.17;;;25.50;50.40;;;;;;4971999;29;20440;-92
2021/06/09 18:54:37;;;;;;;14.50;13.20;;;25.40;50.30;;;;;;4963241;29;20442;-90
2021/06/09 18:57:04;;;;;;;13.83;12.70;;;25.60;50.30;;;;;;4949419;29;20482;-93
2021/06/09 18:59:31;;;;;;;12.30;11.50;;;25.50;50.70;;;;;;4972172;28;20394;-91
2021/06/09 19:01:58;;;;;;;13.03;12.13;;;25.40;52.40;;;;;;4976748;28;20426;-91
2021/06/09 19:04:24;;;;;;;13.07;11.93;;;25.20;50.90;;;;;;4974969;29;20431;-91
2021/06/09 19:06:54;;;;;;;15.67;12.90;;;25.10;52.00;;;;;;4972130;28;20582;-91
2021/06/09 19:09:19;;;;;;;16.03;14.87;;;27.60;54.90;;;;;;4961793;29;20570;-90
2021/06/09 19:11:46;;;;;;;16.80;15.10;;;25.30;54.90;;;;;;4944206;29;20913;-91
2021/06/09 19:14:12;;;;;;;18.70;16.83;;;27.00;56.70;;;;;;4959838;29;20717;-92
2021/06/09 19:16:41;;;;;;;16.63;15.40;;;24.60;57.80;;;;;;4958450;29;20438;-90
2021/06/09 19:19:07;;;;;;;17.73;16.07;;;26.40;60.90;;;;;;4960577;28;20505;-90
2021/06/09 19:21:34;;;;;;;15.90;14.30;;;24.40;59.70;;;;;;4961211;28;20438;-90
2021/06/09 19:24:02;;;;;;;15.27;14.03;;;25.40;57.60;;;;;;4958928;29;20430;-90
2021/06/09 19:26:30;;;;;;;13.80;12.70;;;24.60;56.80;;;;;;4957302;29;20476;-91
2021/06/09 19:28:56;;;;;;;13.90;12.80;;;25.40;57.60;;;;;;4959616;29;20545;-89
2021/06/09 19:31:22;;;;;;;14.80;13.70;;;25.60;57.90;;;;;;4956441;28;20433;-90
2021/06/09 19:33:48;;;;;;;16.20;14.80;;;24.10;58.80;;;;;;4956592;29;20815;-90
2021/06/09 19:36:14;;;;;;;19.67;17.90;;;23.90;58.00;;;;;;4960387;29;20418;-91